Time;durP1;ratioP1;P1;durP2;ratioP2;P2;SDS_P1;SDS_P2;PMS_P1;PMS_P2;Temp;Humidity;BMP_temperature;BMP_pressure;BME280_temperature;BME280_humidity;BME280_pressure;Samples;Min_cycle;Max_cycle;Signal;HPM_P1;HPM_P2
2022/02/16 00:01:07;;;;;;;;;;;;;;;;;;5100945;28;19919;-79
2022/02/16 00:03:33;;;;;;;;;;;;;;;;;;5118266;28;19941;-78
2022/02/16 00:05:58;;;;;;;;;;;;;;;;;;5117478;28;19922;-78
2022/02/16 00:08:24;;;;;;;;;;;;;;;;;;5118876;28;20323;-78
2022/02/16 00:10:50;;;;;;;;;;;;;;;;;;5118409;28;19927;-78
2022/02/16 00:13:15;;;;;;;;;;;;;;;;;;5119761;28;19915;-79
2022/02/16 00:15:40;;;;;;;;;;;;;;;;;;5119292;28;19916;-78
2022/02/16 00:18:06;;;;;;;;;;;;;;;;;;5116928;28;20309;-78
2022/02/16 00:20:31;;;;;;;;;;;;;;;;;;5117745;28;19916;-79
2022/02/16 00:22:57;;;;;;;;;;;;;;;;;;5117930;28;20181;-78
2022/02/16 00:25:22;;;;;;;;;;;;;;;;;;5116303;28;19915;-78
2022/02/16 00:27:48;;;;;;;;;;;;;;;;;;5117362;28;19916;-78
2022/02/16 00:30:13;;;;;;;;;;;;;;;;;;5115603;28;20006;-79
2022/02/16 00:32:39;;;;;;;;;;;;;;;;;;5096624;28;19916;-79
2022/02/16 00:35:04;;;;;;;;;;;;;;;;;;5097525;28;19937;-79
2022/02/16 00:37:30;;;;;;;;;;;;;;;;;;5098174;28;19916;-79
2022/02/16 00:39:55;;;;;;;;;;;;;;;;;;5097314;28;19951;-79
2022/02/16 00:42:21;;;;;;;;;;;;;;;;;;5097334;28;19919;-79
2022/02/16 00:44:46;;;;;;;;;;;;;;;;;;5098460;28;19927;-79
2022/02/16 00:47:12;;;;;;;;;;;;;;;;;;5096661;28;19917;-79
2022/02/16 00:49:38;;;;;;;;;;;;;;;;;;5098136;28;19916;-79
2022/02/16 00:52:03;;;;;;;;;;;;;;;;;;5096309;28;19920;-78
2022/02/16 00:54:29;;;;;;;;;;;;;;;;;;5098089;28;19931;-78
2022/02/16 00:56:57;;;;;;;;;;;;;;;;;;5095976;28;19916;-78
2022/02/16 00:59:26;;;;;;;;;;;;;;;;;;5096344;28;19924;-79
2022/02/16 01:01:52;;;;;;;;;;;;;;;;;;5082469;28;20336;-79
2022/02/16 01:04:17;;;;;;;;;;;;;;;;;;5075437;28;19917;-79
2022/02/16 01:06:42;;;;;;;;;;;;;;;;;;5076639;28;19962;-79
2022/02/16 01:09:08;;;;;;;;;;;;;;;;;;5075672;28;19916;-79
2022/02/16 01:11:33;;;;;;;;;;;;;;;;;;5075276;28;19921;-79
2022/02/16 01:14:01;;;;;;;;;;;;;;;;;;5078261;28;19978;-78
2022/02/16 01:16:29;;;;;;;;;;;;;;;;;;5078879;28;19917;-78
2022/02/16 01:19:04;;;;;;;;;;;;;;;;;;5078895;28;19916;-78
2022/02/16 01:21:30;;;;;;;;;;;;;;;;;;5080313;28;19916;-78
2022/02/16 01:23:56;;;;;;;;;;;;;;;;;;5078929;28;19924;-78
2022/02/16 01:26:23;;;;;;;;;;;;;;;;;;5079441;28;19928;-79
2022/02/16 01:28:56;;;;;;;;;;;;;;;;;;5078571;28;19924;-80
2022/02/16 01:31:21;;;;;;;;;;;;;;;;;;5081350;28;19921;-80
2022/02/16 01:33:49;;;;;;;;;;;;;;;;;;5096460;28;19916;-79
2022/02/16 01:36:14;;;;;;;;;;;;;;;;;;5100112;28;20007;-79
2022/02/16 01:38:40;;;;;;;;;;;;;;;;;;5099783;28;19916;-79
2022/02/16 01:41:13;;;;;;;;;;;;;;;;;;5083463;28;20487;-79
2022/02/16 01:43:50;;;;;;;;;;;;;;;;;;5098658;28;20006;-79
2022/02/16 01:46:16;;;;;;;;;;;;;;;;;;5099228;28;19969;-79
2022/02/16 01:48:42;;;;;;;;;;;;;;;;;;5098366;28;20340;-79
2022/02/16 01:51:08;;;;;;;;;;;;;;;;;;5080987;28;19920;-80
2022/02/16 01:53:40;;;;;;;;;;;;;;;;;;5098359;28;19951;-80
2022/02/16 01:56:06;;;;;;;;;;;;;;;;;;5097589;28;19923;-79
2022/02/16 01:58:34;;;;;;;;;;;;;;;;;;5097612;28;19916;-79
2022/02/16 02:01:22;;;;;;;;;;;;;;;;;;5098402;28;19919;-79
2022/02/16 02:03:55;;;;;;;;;;;;;;;;;;5114340;28;20003;-79
2022/02/16 02:06:21;;;;;;;;;;;;;;;;;;5117890;28;20360;-79
2022/02/16 02:08:46;;;;;;;;;;;;;;;;;;5118759;28;19967;-79
2022/02/16 02:11:11;;;;;;;;;;;;;;;;;;5117152;28;20006;-79
2022/02/16 02:13:57;;;;;;;;;;;;;;;;;;5118089;28;19923;-79
2022/02/16 02:16:38;;;;;;;;;;;;;;;;;;5117925;28;19915;-79
2022/02/16 02:19:05;;;;;;;;;;;;;;;;;;5117747;28;19915;-79
2022/02/16 02:21:30;;;;;;;;;;;;;;;;;;5117852;28;19994;-79
2022/02/16 02:23:56;;;;;;;;;;;;;;;;;;5118575;28;20391;-78
2022/02/16 02:26:21;;;;;;;;;;;;;;;;;;5117381;28;19922;-79
2022/02/16 02:28:47;;;;;;;;;;;;;;;;;;5117322;28;20014;-79
2022/02/16 02:31:16;;;;;;;;;;;;;;;;;;5119288;28;19951;-80
2022/02/16 02:33:42;;;;;;;;;;;;;;;;;;5106895;28;20003;-78
2022/02/16 02:36:07;;;;;;;;;;;;;;;;;;5098286;28;19952;-78
2022/02/16 02:38:33;;;;;;;;;;;;;;;;;;5096783;28;20334;-78
2022/02/16 02:41:00;;;;;;;;;;;;;;;;;;5097650;28;19916;-79
2022/02/16 02:43:30;;;;;;;;;;;;;;;;;;5096490;28;19916;-78
2022/02/16 02:45:56;;;;;;;;;;;;;;;;;;5096111;28;20351;-78
2022/02/16 02:48:26;;;;;;;;;;;;;;;;;;5096523;28;19947;-79
2022/02/16 02:50:53;;;;;;;;;;;;;;;;;;5078659;28;19927;-79
2022/02/16 02:53:19;;;;;;;;;;;;;;;;;;5096742;28;19916;-79
2022/02/16 02:55:44;;;;;;;;;;;;;;;;;;5096184;28;19945;-79
2022/02/16 02:58:10;;;;;;;;;;;;;;;;;;5095862;28;19919;-78
2022/02/16 03:00:42;;;;;;;;;;;;;;;;;;5097606;28;19916;-80
2022/02/16 03:03:07;;;;;;;;;;;;;;;;;;5094007;28;20010;-79
2022/02/16 03:05:33;;;;;;;;;;;;;;;;;;5078145;28;19965;-79
2022/02/16 03:07:58;;;;;;;;;;;;;;;;;;5077488;28;19970;-80
2022/02/16 03:10:24;;;;;;;;;;;;;;;;;;5079078;28;19928;-80
2022/02/16 03:12:49;;;;;;;;;;;;;;;;;;5078034;28;19943;-79
2022/02/16 03:15:16;;;;;;;;;;;;;;;;;;5077339;28;20356;-81
2022/02/16 03:17:45;;;;;;;;;;;;;;;;;;5076996;28;20011;-80
2022/02/16 03:20:10;;;;;;;;;;;;;;;;;;5077923;28;20390;-79
2022/02/16 03:22:39;;;;;;;;;;;;;;;;;;5078595;28;19923;-80
2022/02/16 03:25:06;;;;;;;;;;;;;;;;;;5076614;28;20031;-79
2022/02/16 03:27:31;;;;;;;;;;;;;;;;;;5076539;28;19917;-80
2022/02/16 03:30:02;;;;;;;;;;;;;;;;;;5077344;28;19916;-80
2022/02/16 03:32:33;;;;;;;;;;;;;;;;;;5095780;28;19916;-79
2022/02/16 03:34:59;;;;;;;;;;;;;;;;;;5095066;28;19996;-81
2022/02/16 03:37:25;;;;;;;;;;;;;;;;;;5096534;28;19916;-80
2022/02/16 03:39:51;;;;;;;;;;;;;;;;;;5095689;28;19923;-81
2022/02/16 03:42:16;;;;;;;;;;;;;;;;;;5096770;28;19916;-81
2022/02/16 03:44:42;;;;;;;;;;;;;;;;;;5079123;28;19924;-81
2022/02/16 03:47:09;;;;;;;;;;;;;;;;;;5096011;28;20095;-81
2022/02/16 03:49:34;;;;;;;;;;;;;;;;;;5097180;28;19915;-79
2022/02/16 03:52:00;;;;;;;;;;;;;;;;;;5095159;28;20293;-78
2022/02/16 03:54:26;;;;;;;;;;;;;;;;;;5095955;28;19966;-80
2022/02/16 03:56:51;;;;;;;;;;;;;;;;;;5098016;28;19916;-80
2022/02/16 03:59:17;;;;;;;;;;;;;;;;;;5097623;28;19916;-79
2022/02/16 04:02:03;;;;;;;;;;;;;;;;;;5080773;28;19983;-80
2022/02/16 04:04:29;;;;;;;;;;;;;;;;;;5077145;28;20431;-80
2022/02/16 04:06:54;;;;;;;;;;;;;;;;;;5077476;28;19913;-80
2022/02/16 04:09:19;;;;;;;;;;;;;;;;;;5076450;28;19977;-80
2022/02/16 04:11:45;;;;;;;;;;;;;;;;;;5076652;28;19920;-79
2022/02/16 04:14:10;;;;;;;;;;;;;;;;;;5076506;28;19942;-79
2022/02/16 04:16:36;;;;;;;;;;;;;;;;;;5077279;28;20120;-80
2022/02/16 04:19:01;;;;;;;;;;;;;;;;;;5078616;28;20289;-80
2022/02/16 04:21:27;;;;;;;;;;;;;;;;;;5076672;28;20119;-80
2022/02/16 04:23:52;;;;;;;;;;;;;;;;;;5077042;28;19917;-80
2022/02/16 04:26:18;;;;;;;;;;;;;;;;;;5076896;28;19917;-80
2022/02/16 04:28:49;;;;;;;;;;;;;;;;;;5076464;28;19921;-80
2022/02/16 04:31:15;;;;;;;;;;;;;;;;;;5076919;28;19927;-80
2022/02/16 04:33:40;;;;;;;;;;;;;;;;;;5080494;28;20301;-80
2022/02/16 04:36:06;;;;;;;;;;;;;;;;;;5097379;28;20345;-80
2022/02/16 04:38:31;;;;;;;;;;;;;;;;;;5096789;28;19923;-80
2022/02/16 04:40:57;;;;;;;;;;;;;;;;;;5096835;28;19920;-79
2022/02/16 04:43:22;;;;;;;;;;;;;;;;;;5078902;28;20386;-80
2022/02/16 04:45:48;;;;;;;;;;;;;;;;;;5097337;28;19916;-79
2022/02/16 04:48:15;;;;;;;;;;;;;;;;;;5100023;28;19965;-79
2022/02/16 04:50:41;;;;;;;;;;;;;;;;;;5083347;28;19927;-79
2022/02/16 04:53:07;;;;;;;;;;;;;;;;;;5100201;28;19920;-79
2022/02/16 04:55:35;;;;;;;;;;;;;;;;;;5100239;28;20302;-79
2022/02/16 04:58:07;;;;;;;;;;;;;;;;;;5100398;28;20006;-79
2022/02/16 05:00:33;;;;;;;;;;;;;;;;;;5099832;28;19939;-79
2022/02/16 05:03:12;;;;;;;;;;;;;;;;;;5086533;28;19959;-79
2022/02/16 05:05:38;;;;;;;;;;;;;;;;;;5079615;28;19917;-79
2022/02/16 05:08:03;;;;;;;;;;;;;;;;;;5079661;28;19970;-79
2022/02/16 05:10:29;;;;;;;;;;;;;;;;;;5079190;28;20545;-79
2022/02/16 05:12:56;;;;;;;;;;;;;;;;;;5079065;28;19917;-79
2022/02/16 05:15:22;;;;;;;;;;;;;;;;;;5079122;28;19969;-80
2022/02/16 05:17:47;;;;;;;;;;;;;;;;;;5078883;28;19939;-80
2022/02/16 05:20:36;;;;;;;;;;;;;;;;;;5077862;28;19931;-79
2022/02/16 05:23:01;;;;;;;;;;;;;;;;;;5080141;28;19916;-79
2022/02/16 05:25:27;;;;;;;;;;;;;;;;;;5079641;28;19920;-80
2022/02/16 05:27:52;;;;;;;;;;;;;;;;;;5078423;28;19913;-79
2022/02/16 05:30:18;;;;;;;;;;;;;;;;;;5078428;28;19954;-80
2022/02/16 05:32:43;;;;;;;;;;;;;;;;;;5090593;28;19916;-80
2022/02/16 05:35:10;;;;;;;;;;;;;;;;;;5098862;28;19916;-80
2022/02/16 05:37:36;;;;;;;;;;;;;;;;;;5098860;28;19916;-80
2022/02/16 05:40:02;;;;;;;;;;;;;;;;;;5098481;28;19923;-80
2022/02/16 05:42:28;;;;;;;;;;;;;;;;;;5098222;28;19920;-80
2022/02/16 05:44:53;;;;;;;;;;;;;;;;;;5098325;28;20329;-80
2022/02/16 05:47:19;;;;;;;;;;;;;;;;;;5098128;28;19975;-80
2022/02/16 05:49:45;;;;;;;;;;;;;;;;;;5097109;28;19920;-80
2022/02/16 05:52:12;;;;;;;;;;;;;;;;;;5096966;28;19927;-79
2022/02/16 05:54:37;;;;;;;;;;;;;;;;;;5080238;28;20320;-79
2022/02/16 05:57:03;;;;;;;;;;;;;;;;;;5097404;28;19916;-79
2022/02/16 05:59:29;;;;;;;;;;;;;;;;;;5096833;28;20010;-80
2022/02/16 06:01:57;;;;;;;;;;;;;;;;;;5101854;28;19916;-80
2022/02/16 06:04:23;;;;;;;;;;;;;;;;;;5105219;28;19916;-80
2022/02/16 06:06:49;;;;;;;;;;;;;;;;;;5121105;28;19919;-81
2022/02/16 06:09:17;;;;;;;;;;;;;;;;;;5120551;28;20298;-80
2022/02/16 06:11:42;;;;;;;;;;;;;;;;;;5119872;28;19920;-80
2022/02/16 06:14:15;;;;;;;;;;;;;;;;;;5119551;28;19960;-79
2022/02/16 06:16:46;;;;;;;;;;;;;;;;;;5119455;28;19922;-79
2022/02/16 06:19:11;;;;;;;;;;;;;;;;;;5119417;28;19915;-79
2022/02/16 06:21:36;;;;;;;;;;;;;;;;;;5118728;28;19919;-81
2022/02/16 06:24:02;;;;;;;;;;;;;;;;;;5118632;28;19911;-81
2022/02/16 06:26:27;;;;;;;;;;;;;;;;;;5101391;28;19916;-81
2022/02/16 06:28:53;;;;;;;;;;;;;;;;;;5118482;28;19916;-80
2022/02/16 06:31:20;;;;;;;;;;;;;;;;;;5117618;28;19920;-80
2022/02/16 06:33:45;;;;;;;;;;;;;;;;;;5099331;28;20278;-79
2022/02/16 06:36:11;;;;;;;;;;;;;;;;;;5097316;28;19916;-80
2022/02/16 06:38:37;;;;;;;;;;;;;;;;;;5098054;28;19927;-79
2022/02/16 06:41:06;;;;;;;;;;;;;;;;;;5097144;28;19938;-80
2022/02/16 06:43:32;;;;;;;;;;;;;;;;;;5096912;28;19916;-80
2022/02/16 06:45:58;;;;;;;;;;;;;;;;;;5080976;28;19920;-80
2022/02/16 06:48:24;;;;;;;;;;;;;;;;;;5097281;28;19942;-79
2022/02/16 06:50:49;;;;;;;;;;;;;;;;;;5097326;28;19920;-79
2022/02/16 06:53:15;;;;;;;;;;;;;;;;;;5097529;28;19951;-78
2022/02/16 06:55:43;;;;;;;;;;;;;;;;;;5098301;28;20337;-78
2022/02/16 06:58:10;;;;;;;;;;;;;;;;;;5097504;28;19951;-78
2022/02/16 07:00:35;;;;;;;;;;;;;;;;;;5096948;28;19962;-79
2022/02/16 07:03:02;;;;;;;;;;;;;;;;;;5083283;28;20385;-78
2022/02/16 07:05:33;;;;;;;;;;;;;;;;;;5073934;28;20262;-79
2022/02/16 07:08:02;;;;;;;;;;;;;;;;;;5074367;28;20362;-78
2022/02/16 07:10:27;;;;;;;;;;;;;;;;;;5072567;28;19921;-76
2022/02/16 07:12:53;;;;;;;;;;;;;;;;;;5074308;28;19916;-76
2022/02/16 07:15:18;;;;;;;;;;;;;;;;;;5073042;28;19923;-77
2022/02/16 07:17:50;;;;;;;;;;;;;;;;;;5073179;28;19916;-76
2022/02/16 07:20:16;;;;;;;;;;;;;;;;;;5072677;28;19926;-76
2022/02/16 07:22:46;;;;;;;;;;;;;;;;;;5072910;28;19916;-76
2022/02/16 07:25:12;;;;;;;;;;;;;;;;;;5072916;28;19916;-76
2022/02/16 07:27:38;;;;;;;;;;;;;;;;;;5072746;28;19939;-76
2022/02/16 07:30:05;;;;;;;;;;;;;;;;;;5074659;28;20473;-76
2022/02/16 07:32:31;;;;;;;;;;;;;;;;;;5093087;28;20035;-76
2022/02/16 07:34:57;;;;;;;;;;;;;;;;;;5093269;28;20412;-76
2022/02/16 07:37:22;;;;;;;;;;;;;;;;;;5094279;28;20007;-76
2022/02/16 07:39:50;;;;;;;;;;;;;;;;;;5092995;28;20323;-76
2022/02/16 07:42:16;;;;;;;;;;;;;;;;;;5092970;28;20010;-76
2022/02/16 07:44:47;;;;;;;;;;;;;;;;;;5092828;28;20392;-76
2022/02/16 07:47:38;;;;;;;;;;;;;;;;;;5091002;28;19952;-76
2022/02/16 07:50:06;;;;;;;;;;;;;;;;;;5092756;28;19956;-76
2022/02/16 07:52:34;;;;;;;;;;;;;;;;;;5094187;28;19962;-76
2022/02/16 07:55:28;;;;;;;;;;;;;;;;;;5092490;28;20388;-76
2022/02/16 07:57:58;;;;;;;;;;;;;;;;;;5092876;28;19916;-76
2022/02/16 08:00:24;;;;;;;;;;;;;;;;;;5075928;28;19916;-76
2022/02/16 08:03:03;;;;;;;;;;;;;;;;;;5093311;28;20270;-78
2022/02/16 08:05:29;;;;;;;;;;;;;;;;;;5094571;28;19916;-78
2022/02/16 08:07:54;;;;;;;;;;;;;;;;;;5095151;28;19963;-78
2022/02/16 08:10:20;;;;;;;;;;;;;;;;;;5094697;28;19939;-81
2022/02/16 08:12:49;;;;;;;;;;;;;;;;;;5095434;28;20354;-78
2022/02/16 08:15:15;;;;;;;;;;;;;;;;;;5093028;28;20401;-77
2022/02/16 08:17:42;;;;;;;;;;;;;;;;;;5092473;28;19916;-78
2022/02/16 08:20:08;;;;;;;;;;;;;;;;;;5092578;28;19916;-77
2022/02/16 08:22:38;;;;;;;;;;;;;;;;;;5098151;28;19959;-77
2022/02/16 08:25:04;;;;;;;;;;;;;;;;;;5097202;28;19966;-78
2022/02/16 08:27:50;;;;;;;;;;;;;;;;;;5098110;28;19966;-77
2022/02/16 08:30:18;;;;;;;;;;;;;;;;;;5095522;28;20344;-78
2022/02/16 08:32:48;;;;;;;;;;;;;;;;;;5078419;28;20374;-77
2022/02/16 08:35:28;;;;;;;;;;;;;;;;;;5077242;28;19920;-77
2022/02/16 08:37:53;;;;;;;;;;;;;;;;;;5078336;28;20334;-77
2022/02/16 08:40:18;;;;;;;;;;;;;;;;;;5077929;28;19994;-77
2022/02/16 08:42:44;;;;;;;;;;;;;;;;;;5080928;28;19917;-77
2022/02/16 08:45:10;;;;;;;;;;;;;;;;;;5080270;28;19966;-77
2022/02/16 08:47:35;;;;;;;;;;;;;;;;;;5080824;28;19917;-79
2022/02/16 08:50:00;;;;;;;;;;;;;;;;;;5079629;28;20286;-77
2022/02/16 08:52:26;;;;;;;;;;;;;;;;;;5079192;28;19967;-79
2022/02/16 08:54:51;;;;;;;;;;;;;;;;;;5081260;28;19923;-78
2022/02/16 08:57:17;;;;;;;;;;;;;;;;;;5080528;28;19921;-79
2022/02/16 08:59:43;;;;;;;;;;;;;;;;;;5080411;28;19917;-78
2022/02/16 09:02:09;;;;;;;;;;;;;;;;;;5099333;28;20348;-78
2022/02/16 09:04:34;;;;;;;;;;;;;;;;;;5101304;28;19923;-79
2022/02/16 09:09:43;;;;;;;;;;;;;;;;;;5102232;28;19920;-78
2022/02/16 09:12:09;;;;;;;;;;;;;;;;;;5101715;28;20339;-79
2022/02/16 09:14:35;;;;;;;;;;;;;;;;;;5101631;28;19925;-78
2022/02/16 09:17:01;;;;;;;;;;;;;;;;;;5099841;28;19916;-78
2022/02/16 09:19:27;;;;;;;;;;;;;;;;;;5101139;28;20329;-76
2022/02/16 09:21:52;;;;;;;;;;;;;;;;;;5097922;28;19920;-77
2022/02/16 09:24:19;;;;;;;;;;;;;;;;;;5098575;28;19916;-78
2022/02/16 09:26:52;;;;;;;;;;;;;;;;;;5097613;28;20429;-77
2022/02/16 09:29:18;;;;;;;;;;;;;;;;;;5099164;28;19959;-77
2022/02/16 09:31:44;;;;;;;;;;;;;;;;;;5097115;28;19920;-76
2022/02/16 09:34:09;;;;;;;;;;;;;;;;;;5095412;28;19969;-77
2022/02/16 09:36:35;;;;;;;;;;;;;;;;;;5097120;28;20398;-77
2022/02/16 09:39:00;;;;;;;;;;;;;;;;;;5097023;28;19920;-77
2022/02/16 09:41:33;;;;;;;;;;;;;;;;;;5097903;28;19916;-77
2022/02/16 09:43:58;;;;;;;;;;;;;;;;;;5098280;28;20400;-78
2022/02/16 09:46:24;;;;;;;;;;;;;;;;;;5098301;28;19955;-77
2022/02/16 09:48:50;;;;;;;;;;;;;;;;;;5096681;28;19920;-77
2022/02/16 09:51:17;;;;;;;;;;;;;;;;;;5096385;28;19924;-77
2022/02/16 09:53:43;;;;;;;;;;;;;;;;;;5093477;28;19916;-76
2022/02/16 09:56:09;;;;;;;;;;;;;;;;;;5097008;28;20442;-78
2022/02/16 09:58:34;;;;;;;;;;;;;;;;;;5098182;28;19916;-78
2022/02/16 10:01:02;;;;;;;;;;;;;;;;;;5086578;28;19916;-78
2022/02/16 10:03:28;;;;;;;;;;;;;;;;;;5074573;28;19916;-78
2022/02/16 10:05:53;;;;;;;;;;;;;;;;;;5075833;28;19962;-78
2022/02/16 10:08:39;;;;;;;;;;;;;;;;;;5075810;28;19923;-78
2022/02/16 10:11:04;;;;;;;;;;;;;;;;;;5073717;28;19924;-77
2022/02/16 10:13:29;;;;;;;;;;;;;;;;;;5076627;28;19942;-77
2022/02/16 10:15:55;;;;;;;;;;;;;;;;;;5075728;28;19923;-77
2022/02/16 10:18:21;;;;;;;;;;;;;;;;;;5075656;28;19918;-77
2022/02/16 10:20:46;;;;;;;;;;;;;;;;;;5075180;28;19951;-78
2022/02/16 10:23:12;;;;;;;;;;;;;;;;;;5075312;28;19963;-77
2022/02/16 10:25:46;;;;;;;;;;;;;;;;;;5073990;28;19921;-77
2022/02/16 10:28:11;;;;;;;;;;;;;;;;;;5076316;28;20274;-77
2022/02/16 10:30:57;;;;;;;;;;;;;;;;;;5090413;28;19923;-77
2022/02/16 10:33:28;;;;;;;;;;;;;;;;;;5116379;28;19915;-79
2022/02/16 10:36:11;;;;;;;;;;;;;;;;;;5120093;28;20003;-80
2022/02/16 10:38:56;;;;;;;;;;;;;;;;;;5102225;28;19923;-79
2022/02/16 10:41:24;;;;;;;;;;;;;;;;;;5116087;28;19922;-77
2022/02/16 10:43:50;;;;;;;;;;;;;;;;;;5116655;28;20269;-78
2022/02/16 10:46:27;;;;;;;;;;;;;;;;;;5115721;28;19922;-79
2022/02/16 10:49:11;;;;;;;;;;;;;;;;;;5117923;28;19916;-80
2022/02/16 10:51:36;;;;;;;;;;;;;;;;;;5119168;28;19920;-78
2022/02/16 10:54:11;;;;;;;;;;;;;;;;;;5119055;28;19938;-79
2022/02/16 10:56:36;;;;;;;;;;;;;;;;;;5119994;28;19923;-79
2022/02/16 10:59:01;;;;;;;;;;;;;;;;;;5120659;28;19911;-85
2022/02/16 11:01:27;;;;;;;;;;;;;;;;;;5106479;28;20439;-83
2022/02/16 11:03:53;;;;;;;;;;;;;;;;;;5100344;28;19916;-84
2022/02/16 11:06:20;;;;;;;;;;;;;;;;;;5099131;28;19916;-84
2022/02/16 11:08:46;;;;;;;;;;;;;;;;;;5100310;28;19923;-83
2022/02/16 11:11:12;;;;;;;;;;;;;;;;;;5101956;28;20443;-82
2022/02/16 11:13:38;;;;;;;;;;;;;;;;;;5100525;28;19920;-83
2022/02/16 11:16:03;;;;;;;;;;;;;;;;;;5100057;28;19962;-83
2022/02/16 11:18:30;;;;;;;;;;;;;;;;;;5100624;28;19916;-83
2022/02/16 11:21:12;;;;;;;;;;;;;;;;;;5099810;28;19955;-83
2022/02/16 11:23:39;;;;;;;;;;;;;;;;;;5098673;28;19963;-81
2022/02/16 11:26:26;;;;;;;;;;;;;;;;;;5098183;28;19917;-80
2022/02/16 11:28:52;;;;;;;;;;;;;;;;;;5097552;28;19916;-77
2022/02/16 11:31:31;;;;;;;;;;;;;;;;;;5096859;28;19920;-78
2022/02/16 11:34:11;;;;;;;;;;;;;;;;;;5097750;28;19924;-77
2022/02/16 11:36:44;;;;;;;;;;;;;;;;;;5096428;28;19920;-77
2022/02/16 11:39:10;;;;;;;;;;;;;;;;;;5097252;28;20297;-77
2022/02/16 11:41:35;;;;;;;;;;;;;;;;;;5096346;28;19916;-77
2022/02/16 11:44:02;;;;;;;;;;;;;;;;;;5078151;28;20003;-77
2022/02/16 11:46:40;;;;;;;;;;;;;;;;;;5099073;28;19927;-78
2022/02/16 11:49:06;;;;;;;;;;;;;;;;;;5089357;28;20009;-77
2022/02/16 11:51:34;;;;;;;;;;;;;;;;;;5107626;28;19924;-78
2022/02/16 11:54:18;;;;;;;;;;;;;;;;;;5101219;28;19915;-78
2022/02/16 11:56:43;;;;;;;;;;;;;;;;;;5115498;28;19923;-77
2022/02/16 11:59:17;;;;;;;;;;;;;;;;;;5105558;28;19924;-78
2022/02/16 12:02:21;;;;;;;;;;;;;;;;;;5097195;28;20054;-78
2022/02/16 12:04:53;;;;;;;;;;;;;;;;;;5032860;28;19924;-78
2022/02/16 12:07:21;;;;;;;;;;;;;;;;;;5013927;28;19973;-78
2022/02/16 12:10:06;;;;;;;;;;;;;;;;;;5044975;28;19946;-78
2022/02/16 12:12:32;;;;;;;;;;;;;;;;;;5074167;28;19920;-77
2022/02/16 12:14:57;;;;;;;;;;;;;;;;;;5074680;28;19923;-77
2022/02/16 12:17:22;;;;;;;;;;;;;;;;;;5074530;28;19917;-78
2022/02/16 12:19:48;;;;;;;;;;;;;;;;;;5111287;28;20316;-78
2022/02/16 12:22:19;;;;;;;;;;;;;;;;;;5114524;28;19916;-77
2022/02/16 12:24:45;;;;;;;;;;;;;;;;;;5115046;28;20377;-77
2022/02/16 12:27:11;;;;;;;;;;;;;;;;;;5114615;28;19941;-77
2022/02/16 12:29:39;;;;;;;;;;;;;;;;;;5114800;28;20338;-77
2022/02/16 12:32:05;;;;;;;;;;;;;;;;;;5095113;28;20332;-77
2022/02/16 12:34:33;;;;;;;;;;;;;;;;;;5094042;28;19916;-77
2022/02/16 12:37:01;;;;;;;;;;;;;;;;;;5094078;28;20350;-77
2022/02/16 12:39:28;;;;;;;;;;;;;;;;;;5093940;28;19916;-77
2022/02/16 12:41:53;;;;;;;;;;;;;;;;;;5094091;28;19966;-77
2022/02/16 12:44:20;;;;;;;;;;;;;;;;;;5092111;28;19970;-77
2022/02/16 12:46:48;;;;;;;;;;;;;;;;;;5093742;28;20014;-77
2022/02/16 12:49:14;;;;;;;;;;;;;;;;;;5093578;28;20365;-77
2022/02/16 12:51:42;;;;;;;;;;;;;;;;;;5093935;28;19981;-77
2022/02/16 12:54:10;;;;;;;;;;;;;;;;;;5093914;28;20404;-77
2022/02/16 12:56:41;;;;;;;;;;;;;;;;;;5094039;28;19912;-77
2022/02/16 12:59:13;;;;;;;;;;;;;;;;;;5094387;28;20358;-77
2022/02/16 13:01:41;;;;;;;;;;;;;;;;;;5090467;28;19916;-77
2022/02/16 13:04:07;;;;;;;;;;;;;;;;;;5096216;28;19999;-77
2022/02/16 13:06:46;;;;;;;;;;;;;;;;;;5094678;28;19954;-79
2022/02/16 13:09:11;;;;;;;;;;;;;;;;;;5100551;28;20010;-80
2022/02/16 13:11:50;;;;;;;;;;;;;;;;;;5099774;28;19959;-77
2022/02/16 13:14:16;;;;;;;;;;;;;;;;;;5109536;28;19916;-79
2022/02/16 13:16:51;;;;;;;;;;;;;;;;;;5122073;28;19915;-79
2022/02/16 13:19:36;;;;;;;;;;;;;;;;;;5122190;28;19916;-78
2022/02/16 13:22:03;;;;;;;;;;;;;;;;;;5119479;28;20254;-79
2022/02/16 13:24:28;;;;;;;;;;;;;;;;;;5100681;28;19912;-79
2022/02/16 13:27:00;;;;;;;;;;;;;;;;;;5083180;28;19929;-79
2022/02/16 13:29:27;;;;;;;;;;;;;;;;;;5079757;28;19917;-79
2022/02/16 13:31:53;;;;;;;;;;;;;;;;;;5099648;28;19927;-79
2022/02/16 13:34:20;;;;;;;;;;;;;;;;;;5122698;28;19939;-79
2022/02/16 13:36:45;;;;;;;;;;;;;;;;;;5120045;28;20373;-79
2022/02/16 13:39:11;;;;;;;;;;;;;;;;;;5120547;28;20488;-80
2022/02/16 13:41:37;;;;;;;;;;;;;;;;;;5122275;28;19970;-80
2022/02/16 13:44:03;;;;;;;;;;;;;;;;;;5122171;28;20382;-79
2022/02/16 13:46:40;;;;;;;;;;;;;;;;;;5121255;28;19916;-79
2022/02/16 13:49:12;;;;;;;;;;;;;;;;;;5122412;28;19923;-79
2022/02/16 13:51:48;;;;;;;;;;;;;;;;;;5121312;28;19924;-78
2022/02/16 13:54:36;;;;;;;;;;;;;;;;;;5120882;28;19916;-78
2022/02/16 13:57:07;;;;;;;;;;;;;;;;;;5114033;28;19922;-78
2022/02/16 13:59:34;;;;;;;;;;;;;;;;;;5120550;28;19916;-78
2022/02/16 14:02:07;;;;;;;;;;;;;;;;;;5118097;28;20426;-78
2022/02/16 14:04:33;;;;;;;;;;;;;;;;;;5100774;28;20348;-78
2022/02/16 14:06:59;;;;;;;;;;;;;;;;;;5100868;28;20385;-79
2022/02/16 14:09:24;;;;;;;;;;;;;;;;;;5100675;28;19924;-78
2022/02/16 14:11:49;;;;;;;;;;;;;;;;;;5099304;28;19927;-79
2022/02/16 14:14:15;;;;;;;;;;;;;;;;;;5100187;28;19920;-79
2022/02/16 14:16:40;;;;;;;;;;;;;;;;;;5103602;28;19999;-79
2022/02/16 14:19:24;;;;;;;;;;;;;;;;;;5100399;28;19966;-79
2022/02/16 14:21:58;;;;;;;;;;;;;;;;;;5102835;28;19947;-79
2022/02/16 14:24:23;;;;;;;;;;;;;;;;;;5102196;28;19923;-79
2022/02/16 14:26:50;;;;;;;;;;;;;;;;;;5102685;28;19916;-78
2022/02/16 14:29:15;;;;;;;;;;;;;;;;;;5102469;28;20389;-78
2022/02/16 14:31:41;;;;;;;;;;;;;;;;;;5085954;28;19921;-79
2022/02/16 14:34:06;;;;;;;;;;;;;;;;;;5082268;28;19916;-79
2022/02/16 14:36:33;;;;;;;;;;;;;;;;;;5081712;28;19916;-79
2022/02/16 14:38:58;;;;;;;;;;;;;;;;;;5082147;28;20032;-78
2022/02/16 14:41:23;;;;;;;;;;;;;;;;;;5081198;28;19963;-78
2022/02/16 14:43:49;;;;;;;;;;;;;;;;;;5081571;28;19916;-79
2022/02/16 14:46:14;;;;;;;;;;;;;;;;;;5081157;28;19916;-78
2022/02/16 14:48:39;;;;;;;;;;;;;;;;;;5081753;28;19923;-79
2022/02/16 14:51:05;;;;;;;;;;;;;;;;;;5079477;28;19920;-79
2022/02/16 14:53:30;;;;;;;;;;;;;;;;;;5079221;28;19917;-78
2022/02/16 14:55:56;;;;;;;;;;;;;;;;;;5080596;28;19987;-78
2022/02/16 14:58:21;;;;;;;;;;;;;;;;;;5078945;28;19916;-78
2022/02/16 15:00:46;;;;;;;;;;;;;;;;;;5096160;28;19916;-79
2022/02/16 15:03:14;;;;;;;;;;;;;;;;;;5121751;28;19915;-79
2022/02/16 15:05:40;;;;;;;;;;;;;;;;;;5122068;28;19916;-78
2022/02/16 15:08:05;;;;;;;;;;;;;;;;;;5121568;28;19923;-79
2022/02/16 15:10:30;;;;;;;;;;;;;;;;;;5121408;28;19915;-79
2022/02/16 15:12:56;;;;;;;;;;;;;;;;;;5122837;28;19923;-79
2022/02/16 15:15:21;;;;;;;;;;;;;;;;;;5122461;28;19922;-78
2022/02/16 15:17:47;;;;;;;;;;;;;;;;;;5121884;28;20342;-78
2022/02/16 15:20:15;;;;;;;;;;;;;;;;;;5121389;28;20399;-78
2022/02/16 15:22:40;;;;;;;;;;;;;;;;;;5121242;28;19915;-78
2022/02/16 15:25:05;;;;;;;;;;;;;;;;;;5121304;28;19919;-78
2022/02/16 15:27:32;;;;;;;;;;;;;;;;;;5118659;28;19915;-78
2022/02/16 15:29:58;;;;;;;;;;;;;;;;;;5117486;28;19924;-78
2022/02/16 15:32:23;;;;;;;;;;;;;;;;;;5098852;28;19924;-78
2022/02/16 15:34:49;;;;;;;;;;;;;;;;;;5098888;28;20369;-78
2022/02/16 15:37:15;;;;;;;;;;;;;;;;;;5099551;28;19916;-78
2022/02/16 15:39:42;;;;;;;;;;;;;;;;;;5099288;28;19926;-78
2022/02/16 15:42:07;;;;;;;;;;;;;;;;;;5098904;28;20370;-78
2022/02/16 15:44:33;;;;;;;;;;;;;;;;;;5098567;28;19922;-78
2022/02/16 15:46:58;;;;;;;;;;;;;;;;;;5098724;28;19968;-78
2022/02/16 15:49:24;;;;;;;;;;;;;;;;;;5098711;28;19968;-78
2022/02/16 15:51:49;;;;;;;;;;;;;;;;;;5098382;28;20362;-79
2022/02/16 15:54:14;;;;;;;;;;;;;;;;;;5096739;28;19916;-78
2022/02/16 15:56:40;;;;;;;;;;;;;;;;;;5098415;28;19946;-78
2022/02/16 15:59:05;;;;;;;;;;;;;;;;;;5097222;28;19912;-78
2022/02/16 16:01:30;;;;;;;;;;;;;;;;;;5083940;28;20293;-78
2022/02/16 16:03:56;;;;;;;;;;;;;;;;;;5076555;28;19963;-78
2022/02/16 16:06:21;;;;;;;;;;;;;;;;;;5079826;28;19955;-79
2022/02/16 16:08:47;;;;;;;;;;;;;;;;;;5080160;28;20381;-79
2022/02/16 16:11:12;;;;;;;;;;;;;;;;;;5079891;28;19920;-78
2022/02/16 16:13:37;;;;;;;;;;;;;;;;;;5079673;28;19917;-78
2022/02/16 16:16:04;;;;;;;;;;;;;;;;;;5080226;28;19917;-78
2022/02/16 16:18:30;;;;;;;;;;;;;;;;;;5079815;28;19917;-79
2022/02/16 16:20:56;;;;;;;;;;;;;;;;;;5077097;28;20522;-78
2022/02/16 16:23:21;;;;;;;;;;;;;;;;;;5076890;28;19916;-78
2022/02/16 16:25:47;;;;;;;;;;;;;;;;;;5077506;28;20139;-78
2022/02/16 16:28:16;;;;;;;;;;;;;;;;;;5077933;28;19917;-78
2022/02/16 16:30:41;;;;;;;;;;;;;;;;;;5082886;28;20365;-78
2022/02/16 16:33:07;;;;;;;;;;;;;;;;;;5097686;28;19938;-78
2022/02/16 16:35:32;;;;;;;;;;;;;;;;;;5097647;28;19916;-79
2022/02/16 16:37:57;;;;;;;;;;;;;;;;;;5096780;28;19920;-78
2022/02/16 16:40:23;;;;;;;;;;;;;;;;;;5097956;28;19922;-79
2022/02/16 16:42:48;;;;;;;;;;;;;;;;;;5102523;28;20285;-79
2022/02/16 16:45:13;;;;;;;;;;;;;;;;;;5103021;28;19916;-78
2022/02/16 16:47:39;;;;;;;;;;;;;;;;;;5104229;28;19916;-78
2022/02/16 16:50:07;;;;;;;;;;;;;;;;;;5103225;28;19912;-79
2022/02/16 16:52:33;;;;;;;;;;;;;;;;;;5103305;28;19920;-79